createdAt,value
2018-04-25T00:01:42.359Z,95538
2018-04-25T00:04:11.390Z,95539
2018-04-25T00:06:40.462Z,95529
2018-04-25T00:09:09.506Z,95528
2018-04-25T00:11:38.531Z,95528
2018-04-25T00:14:07.601Z,95525
2018-04-25T00:16:37.402Z,95521
2018-04-25T00:19:06.442Z,95524
2018-04-25T00:21:35.532Z,95526
2018-04-25T00:24:04.566Z,95520
2018-04-25T00:26:33.610Z,95528
2018-04-25T00:29:02.697Z,95528
2018-04-25T00:31:32.490Z,95517
2018-04-25T00:34:02.337Z,95523
2018-04-25T00:36:31.401Z,95529
2018-04-25T00:39:01.197Z,95530
2018-04-25T00:41:31.049Z,95530
2018-04-25T00:44:00.073Z,95527
2018-04-25T00:46:29.108Z,95533
2018-04-25T00:48:58.953Z,95533
2018-04-25T00:51:27.991Z,95533
2018-04-25T00:53:57.042Z,95524
2018-04-25T00:56:26.107Z,95529
2018-04-25T00:58:55.903Z,95522
2018-04-25T01:01:24.958Z,95532
2018-04-25T01:03:53.985Z,95526
2018-04-25T01:06:23.059Z,95526
2018-04-25T01:08:52.087Z,95524
2018-04-25T01:11:21.931Z,95526
2018-04-25T01:13:50.954Z,95532
2018-04-25T01:16:20.019Z,95525
2018-04-25T01:18:49.051Z,95516
2018-04-25T01:21:18.126Z,95519
2018-04-25T01:23:47.155Z,95519
2018-04-25T01:26:16.967Z,95516
2018-04-25T01:28:52.407Z,95527
2018-04-25T01:31:23.043Z,95514
2018-04-25T01:33:59.774Z,95515
2018-04-25T01:39:44.094Z,95506
2018-04-25T01:42:30.805Z,95506
2018-04-25T01:51:31.270Z,95507
2018-04-25T01:54:17.991Z,95506
2018-04-25T01:57:04.645Z,95509
2018-04-25T01:59:51.416Z,95502
2018-04-25T02:02:19.754Z,95499
2018-04-25T02:04:49.578Z,95503
2018-04-25T02:07:18.618Z,95503
2018-04-25T02:09:47.693Z,95502
2018-04-25T02:12:16.725Z,95502
2018-04-25T02:14:45.787Z,95506
2018-04-25T02:17:14.809Z,95511
2018-04-25T02:19:43.879Z,95497
2018-04-25T02:22:12.903Z,95486
2018-04-25T02:24:41.963Z,95500
2018-04-25T02:27:10.990Z,95493
2018-04-25T02:29:40.069Z,95494
2018-04-25T02:32:09.123Z,95492
2018-04-25T02:34:38.155Z,95492
2018-04-25T02:37:07.232Z,95496
2018-04-25T02:39:36.274Z,95488
2018-04-25T02:42:05.300Z,95495
2018-04-25T02:44:34.395Z,95494
2018-04-25T02:47:03.430Z,95489
2018-04-25T02:49:32.453Z,95492
2018-04-25T02:52:01.526Z,95478
2018-04-25T02:54:30.606Z,95483
2018-04-25T02:56:59.621Z,95475
2018-04-25T02:59:29.488Z,95480
2018-04-25T03:01:58.534Z,95480
2018-04-25T03:04:27.585Z,95485
2018-04-25T03:06:56.595Z,95471
2018-04-25T03:09:25.653Z,95481
2018-04-25T03:11:54.683Z,95485
2018-04-25T03:14:23.699Z,95468
2018-04-25T03:16:52.820Z,95475
2018-04-25T03:19:22.582Z,95472
2018-04-25T03:21:51.653Z,95467
2018-04-25T03:24:20.690Z,95460
2018-04-25T03:26:49.698Z,95458
2018-04-25T03:29:19.515Z,95452
2018-04-25T03:31:49.297Z,95450
2018-04-25T03:34:18.331Z,95449
2018-04-25T03:36:47.366Z,95443
2018-04-25T03:39:16.420Z,95445
2018-04-25T03:41:45.462Z,95445
2018-04-25T03:44:14.509Z,95439
2018-04-25T03:46:43.523Z,95442
2018-04-25T03:49:12.605Z,95439
2018-04-25T03:51:41.625Z,95451
2018-04-25T03:54:10.641Z,95462
2018-04-25T03:56:39.701Z,95466
2018-04-25T03:59:08.788Z,95458
2018-04-25T04:01:37.792Z,95458
2018-04-25T04:04:06.853Z,95453
2018-04-25T04:06:35.894Z,95452
2018-04-25T04:09:04.953Z,95454
2018-04-25T04:11:34.015Z,95461
2018-04-25T04:14:03.793Z,95460
2018-04-25T04:16:32.853Z,95460
2018-04-25T04:19:01.864Z,95450
2018-04-25T04:21:30.924Z,95449
2018-04-25T04:23:59.960Z,95467
2018-04-25T04:26:29.018Z,95472
2018-04-25T04:28:58.056Z,95469
2018-04-25T04:31:27.101Z,95470
2018-04-25T04:33:56.156Z,95475
2018-04-25T04:36:25.946Z,95473
2018-04-25T04:38:55.005Z,95475
2018-04-25T04:41:24.034Z,95478
2018-04-25T04:43:53.371Z,95471
2018-04-25T04:46:23.154Z,95476
2018-04-25T04:48:52.193Z,95474
2018-04-25T04:51:21.227Z,95451
2018-04-25T04:53:50.268Z,95466
2018-04-25T04:56:19.325Z,95464
2018-04-25T04:58:48.343Z,95461
2018-04-25T05:01:17.485Z,95451
2018-04-25T05:03:46.499Z,95454
2018-04-25T05:06:15.549Z,95373
2018-04-25T05:08:44.752Z,95450
2018-04-25T05:11:13.652Z,95440
2018-04-25T05:13:42.674Z,95443
2018-04-25T05:16:11.698Z,95445
2018-04-25T05:18:40.779Z,95448
2018-04-25T05:21:09.806Z,95449
2018-04-25T05:23:38.846Z,95451
2018-04-25T05:26:07.985Z,95452
2018-04-25T05:28:37.025Z,95449
2018-04-25T05:31:06.035Z,95449
2018-04-25T05:33:35.098Z,95444
2018-04-25T05:36:04.153Z,95454
2018-04-25T05:38:33.205Z,95453
2018-04-25T05:41:02.271Z,95448
2018-04-25T05:43:31.308Z,95444
2018-04-25T05:46:00.371Z,95439
2018-04-25T05:48:30.022Z,95442
2018-04-25T05:50:59.285Z,95440
2018-04-25T05:53:28.324Z,95436
2018-04-25T05:55:57.367Z,95434
2018-04-25T05:58:26.459Z,95439
2018-04-25T06:00:55.535Z,95436
2018-04-25T06:03:24.569Z,95435
2018-04-25T06:05:53.650Z,95436
2018-04-25T06:08:22.689Z,95443
2018-04-25T06:10:51.753Z,95435
2018-04-25T06:13:20.828Z,95430
2018-04-25T06:15:49.853Z,95427
2018-04-25T06:18:19.687Z,95438
2018-04-25T06:20:48.730Z,95434
2018-04-25T06:23:17.798Z,95439
2018-04-25T06:25:46.825Z,95436
2018-04-25T06:28:15.944Z,95427
2018-04-25T06:30:44.937Z,95432
2018-04-25T06:33:14.763Z,95430
2018-04-25T06:35:43.838Z,95425
2018-04-25T06:38:12.875Z,95427
2018-04-25T06:40:41.978Z,95430
2018-04-25T06:43:11.006Z,95426
2018-04-25T06:45:40.049Z,95420
2018-04-25T06:48:09.112Z,95412
2018-04-25T06:50:38.987Z,95423
2018-04-25T06:53:07.987Z,95410
2018-04-25T06:55:37.043Z,95408
2018-04-25T06:58:06.091Z,95408
2018-04-25T07:00:35.169Z,95401
2018-04-25T07:03:04.207Z,95392
2018-04-25T07:05:34.041Z,95397
2018-04-25T07:08:03.088Z,95395
2018-04-25T07:10:32.152Z,95397
2018-04-25T07:13:01.241Z,95400
2018-04-25T07:15:30.300Z,95400
2018-04-25T07:17:59.318Z,95400
2018-04-25T07:20:28.377Z,95404
2018-04-25T07:22:57.398Z,95402
2018-04-25T07:25:26.480Z,95407
2018-04-25T07:27:56.259Z,95408
2018-04-25T07:30:25.324Z,95410
2018-04-25T07:32:54.353Z,95411
2018-04-25T07:35:23.423Z,95400
2018-04-25T07:37:52.438Z,95408
2018-04-25T07:40:21.520Z,95408
2018-04-25T07:42:50.563Z,95395
2018-04-25T07:45:20.348Z,95405
2018-04-25T07:47:50.196Z,95390
2018-04-25T07:50:19.991Z,95394
2018-04-25T07:52:49.813Z,95397
2018-04-25T07:55:18.881Z,95387
2018-04-25T07:57:47.985Z,95390
2018-04-25T08:00:16.970Z,95390
2018-04-25T08:02:45.997Z,95387
2018-04-25T08:05:15.070Z,95388
2018-04-25T08:07:44.090Z,95402
2018-04-25T08:10:13.129Z,95392
2018-04-25T08:12:59.947Z,95405
2018-04-25T08:15:46.910Z,95412
2018-04-25T08:18:33.800Z,95408
2018-04-25T08:24:09.719Z,95417
2018-04-25T08:26:38.754Z,95396
2018-04-25T08:29:07.818Z,95414
2018-04-25T08:31:36.841Z,95420
2018-04-25T08:34:05.909Z,95417
2018-04-25T08:36:34.940Z,95400
2018-04-25T08:39:04.017Z,95407
2018-04-25T08:41:33.042Z,95412
2018-04-25T08:44:02.890Z,95408
2018-04-25T08:46:31.916Z,95402
2018-04-25T08:49:00.934Z,95403
2018-04-25T08:51:30.760Z,95400
2018-04-25T08:53:59.781Z,95402
2018-04-25T08:56:28.836Z,95404
2018-04-25T08:58:57.898Z,95407
2018-04-25T09:01:26.948Z,95395
2018-04-25T09:03:55.956Z,95392
2018-04-25T09:06:25.020Z,95404
2018-04-25T09:08:54.817Z,95408
2018-04-25T09:11:23.873Z,95396
2018-04-25T09:13:52.901Z,95403
2018-04-25T09:16:22.735Z,95396
2018-04-25T09:18:51.767Z,95394
2018-04-25T09:21:20.838Z,95383
2018-04-25T09:23:49.866Z,95372
2018-04-25T09:26:18.923Z,95389
2018-04-25T09:28:47.941Z,95389
2018-04-25T09:31:16.990Z,95381
2018-04-25T09:33:46.781Z,95383
2018-04-25T09:36:15.840Z,95407
2018-04-25T09:38:44.865Z,95382
2018-04-25T09:41:13.947Z,95382
2018-04-25T09:43:42.966Z,95383
2018-04-25T09:46:11.989Z,95388
2018-04-25T09:48:41.821Z,95382
2018-04-25T09:51:10.849Z,95384
2018-04-25T09:53:40.019Z,95365
2018-04-25T09:56:09.105Z,95375
2018-04-25T09:58:38.135Z,95364
2018-04-25T10:01:07.437Z,95365
2018-04-25T10:03:51.032Z,95360
2018-04-25T10:06:20.118Z,95362
2018-04-25T10:08:50.135Z,95388
2018-04-25T10:11:19.225Z,95376
2018-04-25T10:13:49.046Z,95363
2018-04-25T10:16:18.063Z,95369
2018-04-25T10:18:47.116Z,95364
2018-04-25T10:21:16.134Z,95376
2018-04-25T10:23:45.194Z,95357
2018-04-25T10:26:14.241Z,95360
2018-04-25T10:28:43.285Z,95365
2018-04-25T10:31:12.306Z,95364
2018-04-25T10:33:41.356Z,95356
2018-04-25T10:36:10.407Z,95385
2018-04-25T10:38:39.834Z,95358
2018-04-25T10:41:09.042Z,95374
2018-04-25T10:43:38.068Z,95361
2018-04-25T10:46:07.093Z,95344
2018-04-25T10:48:36.163Z,95354
2018-04-25T10:51:05.229Z,95346
2018-04-25T10:53:35.050Z,95344
2018-04-25T10:56:04.118Z,95349
2018-04-25T10:58:33.139Z,95339
2018-04-25T11:01:02.186Z,95353
2018-04-25T11:03:31.201Z,95352
2018-04-25T11:06:00.271Z,95357
2018-04-25T11:08:29.310Z,95346
2018-04-25T11:10:58.329Z,95351
2018-04-25T11:13:27.449Z,95356
2018-04-25T11:15:56.489Z,95346
2018-04-25T11:18:27.629Z,95342
2018-04-25T11:20:57.838Z,95347
2018-04-25T11:23:27.084Z,95338
2018-04-25T11:25:56.130Z,95337
2018-04-25T11:28:25.160Z,95360
2018-04-25T11:30:54.506Z,95351
2018-04-25T11:33:23.530Z,95334
2018-04-25T11:35:52.606Z,95345
2018-04-25T11:38:21.636Z,95331
2018-04-25T11:40:50.721Z,95347
2018-04-25T11:43:19.843Z,95323
2018-04-25T11:45:49.117Z,95315
2018-04-25T11:48:18.611Z,95330
2018-04-25T11:50:47.794Z,95345
2018-04-25T11:53:16.955Z,95353
2018-04-25T11:55:46.199Z,95325
2018-04-25T11:58:15.253Z,95319
2018-04-25T12:00:44.410Z,95326
2018-04-25T12:03:13.590Z,95345
2018-04-25T12:05:42.760Z,95327
2018-04-25T12:08:11.771Z,95330
2018-04-25T12:10:40.807Z,95324
2018-04-25T12:13:09.887Z,95334
2018-04-25T12:15:38.924Z,95331
2018-04-25T12:18:08.046Z,95350
2018-04-25T12:20:37.102Z,95341
2018-04-25T12:23:06.893Z,95340
2018-04-25T12:25:36.033Z,95337
2018-04-25T12:28:05.151Z,95349
2018-04-25T12:30:34.279Z,95349
2018-04-25T12:33:03.348Z,95358
2018-04-25T12:35:32.548Z,95371
2018-04-25T12:38:01.714Z,95359
2018-04-25T12:40:30.780Z,95385
2018-04-25T12:43:00.600Z,95376
2018-04-25T12:45:30.442Z,95381
2018-04-25T12:47:59.479Z,95376
2018-04-25T12:50:28.518Z,95374
2018-04-25T12:52:58.326Z,95390
2018-04-25T12:55:27.408Z,95385
2018-04-25T12:57:56.473Z,95382
2018-04-25T13:00:25.598Z,95381
2018-04-25T13:02:54.685Z,95398
2018-04-25T13:05:24.538Z,95389
2018-04-25T13:07:53.556Z,95376
2018-04-25T13:10:22.655Z,95380
2018-04-25T13:12:51.678Z,95390
2018-04-25T13:15:20.782Z,95383
2018-04-25T13:17:49.806Z,95382
2018-04-25T13:20:18.897Z,95385
2018-04-25T13:22:47.930Z,95374
2018-04-25T13:25:16.995Z,95365
2018-04-25T13:27:46.090Z,95374
2018-04-25T13:30:15.153Z,95376
2018-04-25T13:32:57.539Z,95369
2018-04-25T13:35:30.416Z,95388
2018-04-25T13:38:00.168Z,95376
2018-04-25T13:40:29.254Z,95374
2018-04-25T13:42:59.060Z,95372
2018-04-25T13:45:28.914Z,95368
2018-04-25T13:52:44.558Z,95374
2018-04-25T13:55:14.264Z,95385
2018-04-25T13:57:44.316Z,95387
2018-04-25T14:00:13.499Z,95380
2018-04-25T14:02:42.585Z,95382
2018-04-25T14:05:11.658Z,95375
2018-04-25T14:07:40.709Z,95378
2018-04-25T14:10:10.534Z,95375
2018-04-25T14:12:40.350Z,95375
2018-04-25T14:15:09.384Z,95383
2018-04-25T14:17:38.485Z,95384
2018-04-25T14:20:07.525Z,95381
2018-04-25T14:22:36.641Z,95379
2018-04-25T14:25:05.753Z,95380
2018-04-25T14:27:34.901Z,95383
2018-04-25T14:30:04.755Z,95388
2018-04-25T14:32:33.970Z,95388
2018-04-25T14:35:03.892Z,95385
2018-04-25T14:37:33.142Z,95384
2018-04-25T14:40:02.184Z,95384
2018-04-25T14:42:31.261Z,95395
2018-04-25T14:45:00.517Z,95390
2018-04-25T14:47:29.666Z,95379
2018-04-25T14:49:58.715Z,95396
2018-04-25T14:52:27.783Z,95392
2018-04-25T14:54:56.812Z,95397
2018-04-25T14:57:25.879Z,95397
2018-04-25T14:59:54.931Z,95401
2018-04-25T15:02:23.980Z,95410
2018-04-25T15:04:53.939Z,95406
2018-04-25T15:07:23.358Z,95408
2018-04-25T15:09:52.401Z,95396
2018-04-25T15:12:21.489Z,95395
2018-04-25T15:14:50.595Z,95395
2018-04-25T15:17:19.604Z,95408
2018-04-25T15:19:48.721Z,95404
2018-04-25T15:22:17.725Z,95408
2018-04-25T15:24:46.735Z,95395
2018-04-25T15:27:25.062Z,95396
2018-04-25T15:29:54.071Z,95390
2018-04-25T15:32:23.218Z,95397
2018-04-25T15:34:52.245Z,95399
2018-04-25T15:37:21.276Z,95396
2018-04-25T15:39:50.329Z,95408
2018-04-25T15:42:19.364Z,95405
2018-04-25T15:44:48.430Z,95400
2018-04-25T15:47:17.443Z,95405
2018-04-25T15:49:46.482Z,95405
2018-04-25T15:52:15.557Z,95410
2018-04-25T15:54:44.631Z,95400
2018-04-25T15:57:13.670Z,95391
2018-04-25T15:59:49.458Z,95379
2018-04-25T16:02:18.482Z,95390
2018-04-25T16:04:47.566Z,95383
2018-04-25T16:07:16.624Z,95404
2018-04-25T16:09:45.713Z,95394
2018-04-25T16:12:14.905Z,95396
2018-04-25T16:14:43.858Z,95384
2018-04-25T16:17:12.988Z,95388
2018-04-25T16:19:42.257Z,95371
2018-04-25T16:22:11.374Z,95375
2018-04-25T16:24:40.441Z,95386
2018-04-25T16:27:09.476Z,95384
2018-04-25T16:29:38.545Z,95377
2018-04-25T16:32:07.573Z,95382
2018-04-25T16:34:36.642Z,95380
2018-04-25T16:37:05.666Z,95385
2018-04-25T16:39:36.401Z,95375
2018-04-25T16:42:05.411Z,95372
2018-04-25T16:44:34.488Z,95369
2018-04-25T16:47:03.504Z,95377
2018-04-25T16:49:32.582Z,95381
2018-04-25T16:52:03.509Z,95365
2018-04-25T16:54:33.341Z,95365
2018-04-25T16:57:02.465Z,95373
2018-04-25T16:59:32.246Z,95361
2018-04-25T17:02:01.502Z,95381
2018-04-25T17:04:30.575Z,95379
2018-04-25T17:06:59.601Z,95375
2018-04-25T17:09:28.898Z,95407
2018-04-25T17:11:59.062Z,95374
2018-04-25T17:14:28.149Z,95377
2018-04-25T17:16:57.666Z,95365
2018-04-25T17:19:26.764Z,95373
2018-04-25T17:21:55.829Z,95367
2018-04-25T17:24:25.800Z,95362
2018-04-25T17:26:56.344Z,95365
2018-04-25T17:29:25.366Z,95363
2018-04-25T17:31:55.496Z,95359
2018-04-25T17:34:24.575Z,95378
2018-04-25T17:36:53.862Z,95375
2018-04-25T17:39:24.232Z,95370
2018-04-25T17:41:53.392Z,95377
2018-04-25T17:44:22.423Z,95381
2018-04-25T17:46:51.504Z,95379
2018-04-25T17:49:21.330Z,95377
2018-04-25T17:51:50.384Z,95391
2018-04-25T17:54:19.986Z,95379
2018-04-25T17:56:49.033Z,95385
2018-04-25T17:59:18.058Z,95400
2018-04-25T18:01:47.234Z,95403
2018-04-25T18:04:16.257Z,95409
2018-04-25T18:06:45.295Z,95410
2018-04-25T18:09:14.346Z,95417
2018-04-25T18:11:43.360Z,95419
2018-04-25T18:14:12.456Z,95421
2018-04-25T18:16:41.468Z,95419
2018-04-25T18:19:11.438Z,95423
2018-04-25T18:21:40.516Z,95417
2018-04-25T18:24:09.535Z,95420
2018-04-25T18:26:38.613Z,95423
2018-04-25T18:29:07.639Z,95418
2018-04-25T18:31:36.675Z,95417
2018-04-25T18:34:05.742Z,95421
2018-04-25T18:36:34.795Z,95424
2018-04-25T18:39:03.859Z,95423
2018-04-25T18:41:32.877Z,95433
2018-04-25T18:44:01.977Z,95433
2018-04-25T18:46:30.981Z,95427
2018-04-25T18:49:00.003Z,95419
2018-04-25T18:51:29.828Z,95425
2018-04-25T18:53:58.868Z,95427
2018-04-25T18:56:27.901Z,95427
2018-04-25T18:58:56.954Z,95432
2018-04-25T19:01:25.973Z,95443
2018-04-25T19:03:56.016Z,95444
2018-04-25T19:06:25.037Z,95448
2018-04-25T19:08:54.124Z,95459
2018-04-25T19:11:23.149Z,95463
2018-04-25T19:13:52.159Z,95465
2018-04-25T19:16:21.205Z,95463
2018-04-25T19:18:50.231Z,95463
2018-04-25T19:21:19.640Z,95464
2018-04-25T19:23:49.446Z,95473
2018-04-25T19:26:19.442Z,95468
2018-04-25T19:28:48.466Z,95472
2018-04-25T19:31:17.489Z,95458
2018-04-25T19:33:46.634Z,95458
2018-04-25T19:36:15.693Z,95477
2018-04-25T19:38:44.733Z,95473
2018-04-25T19:41:13.817Z,95476
2018-04-25T19:43:42.833Z,95477
2018-04-25T19:46:11.850Z,95473
2018-04-25T19:48:40.929Z,95479
2018-04-25T19:51:10.775Z,95487
2018-04-25T19:54:03.763Z,95484
2018-04-25T19:56:35.756Z,95483
2018-04-25T19:59:05.545Z,95477
2018-04-25T20:01:34.609Z,95480
2018-04-25T20:04:03.642Z,95124
2018-04-25T20:06:32.694Z,95498
2018-04-25T20:09:01.702Z,95489
2018-04-25T20:11:30.760Z,95498
2018-04-25T20:13:59.786Z,95505
2018-04-25T20:16:28.805Z,95500
2018-04-25T20:18:57.853Z,95509
2018-04-25T20:21:26.904Z,95508
2018-04-25T20:23:56.713Z,95514
2018-04-25T20:26:25.741Z,95512
2018-04-25T20:28:54.805Z,95511
2018-04-25T20:31:24.588Z,95507
2018-04-25T20:33:53.618Z,95501
2018-04-25T20:36:23.433Z,95523
2018-04-25T20:38:52.456Z,95526
2018-04-25T20:41:22.694Z,95533
2018-04-25T20:43:52.899Z,95540
2018-04-25T20:46:22.111Z,95543
2018-04-25T20:48:51.150Z,95542
2018-04-25T20:51:20.939Z,95540
2018-04-25T20:53:50.003Z,95543
2018-04-25T20:56:19.065Z,95540
2018-04-25T20:58:48.357Z,95544
2018-04-25T21:01:17.412Z,95542
2018-04-25T21:03:46.510Z,95560
2018-04-25T21:06:16.103Z,95562
2018-04-25T21:08:45.157Z,95566
2018-04-25T21:11:14.205Z,95564
2018-04-25T21:13:43.228Z,95567
2018-04-25T21:16:13.044Z,95565
2018-04-25T21:18:42.329Z,95565
2018-04-25T21:21:11.413Z,95548
2018-04-25T21:23:40.439Z,95561
2018-04-25T21:26:09.527Z,95562
2018-04-25T21:28:39.397Z,95555
2018-04-25T21:31:08.687Z,95574
2018-04-25T21:33:37.695Z,95579
2018-04-25T21:36:06.801Z,95575
2018-04-25T21:38:35.841Z,95574
2018-04-25T21:41:05.335Z,95578
2018-04-25T21:43:34.539Z,95581
2018-04-25T21:46:03.937Z,95585
2018-04-25T21:48:33.469Z,95592
2018-04-25T21:51:02.487Z,95592
2018-04-25T21:53:31.576Z,95590
2018-04-25T21:56:00.821Z,95600
2018-04-25T21:58:29.859Z,95601
2018-04-25T22:00:58.926Z,95590
2018-04-25T22:03:27.946Z,95593
2018-04-25T22:05:57.136Z,95605
2018-04-25T22:08:26.170Z,95603
2018-04-25T22:10:56.417Z,95603
2018-04-25T22:13:25.429Z,95593
2018-04-25T22:15:54.521Z,95612
2018-04-25T22:18:23.576Z,95610
2018-04-25T22:20:53.364Z,95616
2018-04-25T22:23:22.411Z,95616
2018-04-25T22:25:51.427Z,95624
2018-04-25T22:28:20.489Z,95621
2018-04-25T22:30:49.514Z,95625
2018-04-25T22:33:18.565Z,95632
2018-04-25T22:35:48.372Z,95633
2018-04-25T22:38:18.162Z,95638
2018-04-25T22:40:47.220Z,95630
2018-04-25T22:43:16.263Z,95633
2018-04-25T22:45:45.318Z,95630
2018-04-25T22:48:14.333Z,95629
2018-04-25T22:50:43.371Z,95639
2018-04-25T22:53:12.398Z,95632
2018-04-25T22:55:41.450Z,95636
2018-04-25T22:58:10.505Z,95637
2018-04-25T23:00:39.524Z,95657
2018-04-25T23:03:08.567Z,95663
2018-04-25T23:05:37.583Z,95654
2018-04-25T23:08:06.733Z,95658
2018-04-25T23:10:35.699Z,95669
2018-04-25T23:13:04.731Z,95665
2018-04-25T23:15:33.782Z,95661
2018-04-25T23:18:03.586Z,95659
2018-04-25T23:20:32.636Z,95665
2018-04-25T23:23:01.655Z,95657
2018-04-25T23:25:30.675Z,95664
2018-04-25T23:28:00.508Z,95664
2018-04-25T23:30:29.542Z,95667
2018-04-25T23:32:58.560Z,95668
2018-04-25T23:35:28.385Z,95667
2018-04-25T23:37:58.217Z,95671
2018-04-25T23:40:27.235Z,95677
2018-04-25T23:42:56.309Z,95679
2018-04-25T23:45:25.324Z,95665
2018-04-25T23:47:54.380Z,95667
2018-04-25T23:50:24.163Z,95693
2018-04-25T23:52:53.235Z,95675
2018-04-25T23:55:22.311Z,95674
2018-04-25T23:57:51.328Z,95676
